createdAt,value
2022-08-22T00:01:28.931Z,98453.00
2022-08-22T00:02:43.109Z,98390.00
2022-08-22T00:03:06.993Z,98458.00
2022-08-22T00:03:08.441Z,98469.00
2022-08-22T00:04:02.494Z,98462.00
2022-08-22T00:06:39.457Z,98465.00
2022-08-22T00:09:15.983Z,98450.00
2022-08-22T00:11:47.148Z,98467.00
2022-08-22T00:14:25.183Z,98466.00
2022-08-22T00:16:57.952Z,98469.00
2022-08-22T00:19:30.541Z,98458.00
2022-08-22T00:22:02.207Z,98460.00
2022-08-22T00:24:32.645Z,98461.00
2022-08-22T00:27:03.776Z,98452.00
2022-08-22T00:29:34.754Z,98467.00
2022-08-22T00:32:07.909Z,98462.00
2022-08-22T00:34:41.214Z,98465.00
2022-08-22T00:37:16.626Z,98459.00
2022-08-22T00:39:48.413Z,98463.00
2022-08-22T00:42:40.219Z,98464.00
2022-08-22T00:45:32.181Z,98467.00
2022-08-22T00:48:38.648Z,98464.00
2022-08-22T00:51:42.804Z,98464.00
2022-08-22T00:54:18.303Z,98466.00
2022-08-22T00:56:58.527Z,98472.00
2022-08-22T00:59:40.580Z,98455.00
2022-08-22T01:02:15.520Z,98468.00
2022-08-22T01:04:51.548Z,98464.00
2022-08-22T01:07:38.308Z,98460.00
2022-08-22T01:10:20.197Z,98466.00
2022-08-22T01:12:57.576Z,98466.00
2022-08-22T01:15:27.336Z,98459.00
2022-08-22T01:18:08.134Z,98463.00
2022-08-22T01:21:13.111Z,98464.00
2022-08-22T01:24:26.465Z,98471.00
2022-08-22T01:27:31.334Z,98461.00
2022-08-22T01:30:07.905Z,98467.00
2022-08-22T01:33:29.229Z,98464.00
2022-08-22T01:36:24.093Z,98465.00
2022-08-22T01:39:16.366Z,98476.00
2022-08-22T01:42:25.749Z,98474.00
2022-08-22T01:45:16.026Z,98479.00
2022-08-22T01:47:46.213Z,98478.00
2022-08-22T01:50:19.693Z,98478.00
2022-08-22T01:52:50.182Z,98476.00
2022-08-22T01:55:24.995Z,98485.00
2022-08-22T01:57:54.841Z,98475.00
2022-08-22T02:00:35.165Z,98480.00
2022-08-22T02:03:13.633Z,98484.00
2022-08-22T02:05:48.144Z,98477.00
2022-08-22T02:08:23.487Z,98475.00
2022-08-22T02:10:59.001Z,98478.00
2022-08-22T02:13:34.656Z,98482.00
2022-08-22T02:16:08.562Z,98479.00
2022-08-22T02:18:45.967Z,98481.00
2022-08-22T02:21:23.193Z,98486.00
2022-08-22T02:23:56.070Z,98476.00
2022-08-22T02:26:26.974Z,98484.00
2022-08-22T02:28:58.826Z,98483.00
2022-08-22T02:31:38.446Z,98479.00
2022-08-22T02:34:20.294Z,98470.00
2022-08-22T02:36:50.437Z,98477.00
2022-08-22T02:39:25.010Z,98493.00
2022-08-22T02:41:55.059Z,98481.00
2022-08-22T02:44:35.410Z,98481.00
2022-08-22T02:47:05.301Z,98478.00
2022-08-22T02:49:36.572Z,98482.00
2022-08-22T02:52:14.203Z,98477.00
2022-08-22T02:54:48.984Z,98477.00
2022-08-22T02:57:20.378Z,98477.00
2022-08-22T03:00:05.987Z,98479.00
2022-08-22T03:03:02.401Z,98478.00
2022-08-22T03:05:31.856Z,98477.00
2022-08-22T03:08:02.859Z,98484.00
2022-08-22T03:10:38.198Z,98477.00
2022-08-22T03:13:10.262Z,98479.00
2022-08-22T03:15:40.530Z,98480.00
2022-08-22T03:18:22.609Z,98477.00
2022-08-22T03:20:53.560Z,98478.00
2022-08-22T03:23:27.877Z,98484.00
2022-08-22T03:26:01.622Z,98477.00
2022-08-22T03:28:37.582Z,98481.00
2022-08-22T03:31:12.882Z,98490.00
2022-08-22T03:33:41.143Z,98482.00
2022-08-22T03:36:13.085Z,98482.00
2022-08-22T03:38:46.971Z,98477.00
2022-08-22T03:41:38.333Z,98490.00
2022-08-22T03:44:18.978Z,98486.00
2022-08-22T03:47:03.482Z,98484.00
2022-08-22T03:49:59.728Z,98485.00
2022-08-22T03:53:18.444Z,98494.00
2022-08-22T03:56:20.645Z,98496.00
2022-08-22T03:59:10.442Z,98494.00
2022-08-22T04:01:58.712Z,98499.00
2022-08-22T04:04:48.045Z,98495.00
2022-08-22T04:07:43.515Z,98496.00
2022-08-22T04:10:45.935Z,98497.00
2022-08-22T04:13:41.648Z,98497.00
2022-08-22T04:16:24.957Z,98494.00
2022-08-22T04:19:15.370Z,98505.00
2022-08-22T04:21:52.679Z,98500.00
2022-08-22T04:24:32.466Z,98501.00
2022-08-22T04:27:03.562Z,98499.00
2022-08-22T04:29:33.588Z,98507.00
2022-08-22T04:32:09.740Z,98505.00
2022-08-22T04:34:41.379Z,98516.00
2022-08-22T04:37:12.959Z,98503.00
2022-08-22T04:39:45.923Z,98507.00
2022-08-22T04:42:32.416Z,98506.00
2022-08-22T04:45:05.150Z,98505.00
2022-08-22T04:47:36.922Z,98505.00
2022-08-22T04:50:07.286Z,98516.00
2022-08-22T04:52:46.659Z,98510.00
2022-08-22T04:55:20.488Z,98515.00
2022-08-22T04:57:52.981Z,98520.00
2022-08-22T05:00:21.265Z,98510.00
2022-08-22T05:02:53.883Z,98522.00
2022-08-22T05:05:24.567Z,98534.00
2022-08-22T05:07:56.920Z,98535.00
2022-08-22T05:10:27.022Z,98535.00
2022-08-22T05:12:56.199Z,98543.00
2022-08-22T05:15:25.829Z,98544.00
2022-08-22T05:17:58.649Z,98548.00
2022-08-22T05:20:27.760Z,98544.00
2022-08-22T05:22:57.607Z,98543.00
2022-08-22T05:25:28.012Z,98551.00
2022-08-22T05:28:06.493Z,98549.00
2022-08-22T05:30:34.871Z,98549.00
2022-08-22T05:33:06.549Z,98548.00
2022-08-22T05:35:36.518Z,98552.00
2022-08-22T05:38:04.694Z,98553.00
2022-08-22T05:40:32.911Z,98548.00
2022-08-22T05:43:01.063Z,98548.00
2022-08-22T05:45:29.529Z,98555.00
2022-08-22T05:48:02.609Z,98553.00
2022-08-22T05:50:37.061Z,98552.00
2022-08-22T05:53:07.363Z,98564.00
2022-08-22T05:55:41.546Z,98565.00
2022-08-22T05:58:27.143Z,98560.00
2022-08-22T06:00:57.041Z,98558.00
2022-08-22T06:03:27.047Z,98565.00
2022-08-22T06:05:59.549Z,98570.00
2022-08-22T06:08:30.462Z,98563.00
2022-08-22T06:10:59.297Z,98563.00
2022-08-22T06:13:32.216Z,98562.00
2022-08-22T06:16:06.949Z,98565.00
2022-08-22T06:18:37.579Z,98573.00
2022-08-22T06:21:08.913Z,98564.00
2022-08-22T06:23:38.238Z,98565.00
2022-08-22T06:26:06.653Z,98570.00
2022-08-22T06:28:54.626Z,98568.00
2022-08-22T06:31:26.415Z,98569.00
2022-08-22T06:33:56.966Z,98568.00
2022-08-22T06:36:32.546Z,98563.00
2022-08-22T06:39:17.362Z,98564.00
2022-08-22T06:41:48.732Z,98560.00
2022-08-22T06:44:17.681Z,98563.00
2022-08-22T06:46:45.967Z,98561.00
2022-08-22T06:49:14.196Z,98556.00
2022-08-22T06:51:43.794Z,98555.00
2022-08-22T06:54:15.901Z,98553.00
2022-08-22T06:56:45.830Z,98560.00
2022-08-22T06:59:15.386Z,98559.00
2022-08-22T07:01:49.324Z,98541.00
2022-08-22T07:04:17.561Z,98542.00
2022-08-22T07:06:50.187Z,98553.00
2022-08-22T07:09:21.600Z,98554.00
2022-08-22T07:11:49.977Z,98553.00
2022-08-22T07:14:19.435Z,98550.00
2022-08-22T07:16:50.518Z,98549.00
2022-08-22T07:19:24.764Z,98558.00
2022-08-22T07:21:54.572Z,98547.00
2022-08-22T07:24:25.101Z,98544.00
2022-08-22T07:27:01.569Z,98550.00
2022-08-22T07:29:35.475Z,98551.00
2022-08-22T07:32:14.849Z,98550.00
2022-08-22T07:34:51.996Z,98556.00
2022-08-22T07:37:24.606Z,98550.00
2022-08-22T07:39:55.135Z,98555.00
2022-08-22T07:42:28.582Z,98553.00
2022-08-22T07:45:05.680Z,98554.00
2022-08-22T07:47:40.884Z,98555.00
2022-08-22T07:50:10.161Z,98557.00
2022-08-22T07:52:41.898Z,98556.00
2022-08-22T07:55:14.182Z,98556.00
2022-08-22T07:57:42.911Z,98550.00
2022-08-22T08:00:14.360Z,98553.00
2022-08-22T08:02:45.758Z,98553.00
2022-08-22T08:05:15.104Z,98555.00
2022-08-22T08:07:46.225Z,98554.00
2022-08-22T08:10:20.053Z,98552.00
2022-08-22T08:13:01.732Z,98552.00
2022-08-22T08:15:35.004Z,98552.00
2022-08-22T08:18:09.953Z,98559.00
2022-08-22T08:20:38.326Z,98558.00
2022-08-22T08:23:10.030Z,98551.00
2022-08-22T08:25:53.493Z,98555.00
2022-08-22T08:28:38.158Z,98560.00
2022-08-22T08:31:11.720Z,98556.00
2022-08-22T08:33:42.126Z,98561.00
2022-08-22T08:36:17.976Z,98543.00
2022-08-22T08:38:49.329Z,98559.00
2022-08-22T08:41:39.570Z,98555.00
2022-08-22T08:44:12.432Z,98562.00
2022-08-22T08:46:57.463Z,98557.00
2022-08-22T08:49:56.288Z,98558.00
2022-08-22T08:52:45.342Z,98555.00
2022-08-22T08:55:22.747Z,98558.00
2022-08-22T08:57:58.937Z,98556.00
2022-08-22T09:00:50.840Z,98549.00
2022-08-22T09:03:41.818Z,98544.00
2022-08-22T09:06:18.954Z,98556.00
2022-08-22T09:09:04.286Z,98554.00
2022-08-22T09:12:14.247Z,98550.00
2022-08-22T09:15:02.587Z,98547.00
2022-08-22T09:17:43.735Z,98544.00
2022-08-22T09:20:38.214Z,98548.00
2022-08-22T09:23:41.898Z,98542.00
2022-08-22T09:26:14.478Z,98534.00
2022-08-22T09:28:48.803Z,98542.00
2022-08-22T09:31:51.552Z,98548.00
2022-08-22T09:34:25.460Z,98545.00
2022-08-22T09:37:04.542Z,98550.00
2022-08-22T09:39:34.949Z,98538.00
2022-08-22T09:42:08.072Z,98547.00
2022-08-22T09:44:41.627Z,98541.00
2022-08-22T09:47:17.183Z,98539.00
2022-08-22T09:49:57.764Z,98523.00
2022-08-22T09:52:53.493Z,98520.00
2022-08-22T09:55:35.675Z,98525.00
2022-08-22T09:58:06.073Z,98527.00
2022-08-22T10:00:45.326Z,98525.00
2022-08-22T10:04:11.675Z,98529.00
2022-08-22T10:06:44.886Z,98527.00
2022-08-22T10:09:17.505Z,98527.00
2022-08-22T10:11:50.118Z,98537.00
2022-08-22T10:14:22.290Z,98535.00
2022-08-22T10:16:57.451Z,98528.00
2022-08-22T10:19:28.654Z,98528.00
2022-08-22T10:22:22.865Z,98536.00
2022-08-22T10:24:58.995Z,98524.00
2022-08-22T10:27:35.966Z,98536.00
2022-08-22T10:30:06.885Z,98536.00
2022-08-22T10:32:41.123Z,98538.00
2022-08-22T10:35:17.022Z,98535.00
2022-08-22T10:37:50.537Z,98537.00
2022-08-22T10:40:22.546Z,98535.00
2022-08-22T10:42:53.664Z,98528.00
2022-08-22T10:45:36.197Z,98538.00
2022-08-22T10:48:33.746Z,98539.00
2022-08-22T10:51:16.474Z,98539.00
2022-08-22T10:54:08.098Z,98537.00
2022-08-22T10:56:39.283Z,98534.00
2022-08-22T10:59:16.831Z,98525.00
2022-08-22T11:01:52.428Z,98528.00
2022-08-22T11:04:29.688Z,98520.00
2022-08-22T11:07:01.520Z,98522.00
2022-08-22T11:09:35.771Z,98503.00
2022-08-22T11:12:11.024Z,98506.00
2022-08-22T11:15:03.602Z,98501.00
2022-08-22T11:18:14.657Z,98502.00
2022-08-22T11:20:55.979Z,98499.00
2022-08-22T11:23:31.094Z,98498.00
2022-08-22T11:26:06.257Z,98491.00
2022-08-22T11:29:13.578Z,98497.00
2022-08-22T11:31:52.206Z,98485.00
2022-08-22T11:34:28.466Z,98487.00
2022-08-22T11:37:03.055Z,98484.00
2022-08-22T11:39:42.020Z,98477.00
2022-08-22T11:42:14.424Z,98477.00
2022-08-22T11:44:50.342Z,98481.00
2022-08-22T11:47:24.176Z,98479.00
2022-08-22T11:49:58.765Z,98478.00
2022-08-22T11:52:53.393Z,98481.00
2022-08-22T11:55:27.563Z,98478.00
2022-08-22T11:58:07.701Z,98473.00
2022-08-22T12:00:41.919Z,98477.00
2022-08-22T12:03:45.026Z,98471.00
2022-08-22T12:06:31.415Z,98468.00
2022-08-22T12:09:17.954Z,98456.00
2022-08-22T12:11:54.934Z,98457.00
2022-08-22T12:14:27.205Z,98458.00
2022-08-22T12:17:06.069Z,98455.00
2022-08-22T12:19:45.177Z,98447.00
2022-08-22T12:22:54.689Z,98448.00
2022-08-22T12:25:34.005Z,98443.00
2022-08-22T12:28:15.950Z,98450.00
2022-08-22T12:30:48.154Z,98444.00
2022-08-22T12:33:45.035Z,98454.00
2022-08-22T12:36:27.927Z,98438.00
2022-08-22T12:39:16.032Z,98437.00
2022-08-22T12:42:04.929Z,98435.00
2022-08-22T12:44:39.027Z,98421.00
2022-08-22T12:47:14.535Z,98422.00
2022-08-22T12:49:58.629Z,98419.00
2022-08-22T12:52:35.703Z,98429.00
2022-08-22T12:55:19.125Z,98429.00
2022-08-22T12:57:54.207Z,98417.00
2022-08-22T13:00:30.103Z,98415.00
2022-08-22T13:02:58.756Z,98409.00
2022-08-22T13:05:28.621Z,98408.00
2022-08-22T13:08:02.340Z,98409.00
2022-08-22T13:10:43.090Z,98410.00
2022-08-22T13:13:16.629Z,98414.00
2022-08-22T13:15:56.567Z,98410.00
2022-08-22T13:18:31.249Z,98401.00
2022-08-22T13:21:02.028Z,98403.00
2022-08-22T13:23:31.779Z,98407.00
2022-08-22T13:26:07.964Z,98393.00
2022-08-22T13:28:42.069Z,98400.00
2022-08-22T13:31:10.386Z,98402.00
2022-08-22T13:33:43.201Z,98406.00
2022-08-22T13:36:14.884Z,98412.00
2022-08-22T13:38:46.696Z,98404.00
2022-08-22T13:41:20.214Z,98402.00
2022-08-22T13:44:12.062Z,98406.00
2022-08-22T13:46:57.999Z,98403.00
2022-08-22T13:49:32.842Z,98403.00
2022-08-22T13:52:14.514Z,98407.00
2022-08-22T13:55:01.337Z,98404.00
2022-08-22T13:57:32.613Z,98404.00
2022-08-22T14:00:09.752Z,98396.00
2022-08-22T14:02:48.091Z,98400.00
2022-08-22T14:05:20.781Z,98389.00
2022-08-22T14:07:53.014Z,98402.00
2022-08-22T14:10:23.724Z,98393.00
2022-08-22T14:13:17.575Z,98398.00
2022-08-22T14:15:47.254Z,98398.00
2022-08-22T14:18:18.615Z,98399.00
2022-08-22T14:20:47.656Z,98399.00
2022-08-22T14:23:18.853Z,98393.00
2022-08-22T14:25:52.277Z,98401.00
2022-08-22T14:28:22.940Z,98400.00
2022-08-22T14:31:00.888Z,98403.00
2022-08-22T14:33:32.516Z,98398.00
2022-08-22T14:36:05.090Z,98408.00
2022-08-22T14:38:37.790Z,98398.00
2022-08-22T14:41:06.845Z,98397.00
2022-08-22T14:43:51.260Z,98402.00
2022-08-22T14:46:27.525Z,98402.00
2022-08-22T14:49:26.865Z,98406.00
2022-08-22T14:52:11.029Z,98402.00
2022-08-22T14:54:48.614Z,98397.00
2022-08-22T14:57:20.990Z,98396.00
2022-08-22T14:59:50.673Z,98399.00
2022-08-22T15:02:26.456Z,98401.00
2022-08-22T15:04:55.176Z,98397.00
2022-08-22T15:07:25.042Z,98398.00
2022-08-22T15:09:55.077Z,98394.00
2022-08-22T15:12:27.014Z,98389.00
2022-08-22T15:14:57.432Z,98389.00
2022-08-22T15:17:39.555Z,98391.00
2022-08-22T15:20:27.713Z,98383.00
2022-08-22T15:22:58.013Z,98377.00
2022-08-22T15:25:29.967Z,98380.00
2022-08-22T15:28:05.289Z,98375.00
2022-08-22T15:30:36.607Z,98375.00
2022-08-22T15:33:24.074Z,98372.00
2022-08-22T15:35:53.462Z,98371.00
2022-08-22T15:38:29.917Z,98369.00
2022-08-22T15:40:58.469Z,98366.00
2022-08-22T15:43:28.897Z,98357.00
2022-08-22T15:46:18.342Z,98363.00
2022-08-22T15:48:56.671Z,98354.00
2022-08-22T15:51:38.971Z,98351.00
2022-08-22T15:54:16.102Z,98347.00
2022-08-22T15:57:13.799Z,98351.00
2022-08-22T15:59:53.603Z,98345.00
2022-08-22T16:02:25.748Z,98352.00
2022-08-22T16:05:04.629Z,98359.00
2022-08-22T16:07:39.628Z,98348.00
2022-08-22T16:10:11.501Z,98358.00
2022-08-22T16:12:43.073Z,98353.00
2022-08-22T16:15:44.825Z,98356.00
2022-08-22T16:18:47.242Z,98358.00
2022-08-22T16:21:17.441Z,98354.00
2022-08-22T16:24:23.201Z,98351.00
2022-08-22T16:26:51.421Z,98356.00
2022-08-22T16:29:30.588Z,98353.00
2022-08-22T16:32:03.900Z,98355.00
2022-08-22T16:34:41.127Z,98354.00
2022-08-22T16:37:32.109Z,98358.00
2022-08-22T16:40:14.678Z,98347.00
2022-08-22T16:42:44.249Z,98354.00
2022-08-22T16:45:14.637Z,98352.00
2022-08-22T16:47:52.804Z,98342.00
2022-08-22T16:50:33.848Z,98348.00
2022-08-22T16:53:09.124Z,98350.00
2022-08-22T16:55:48.048Z,98360.00
2022-08-22T16:58:29.577Z,98353.00
2022-08-22T17:01:13.205Z,98356.00
2022-08-22T17:03:43.810Z,98360.00
2022-08-22T17:06:23.153Z,98359.00
2022-08-22T17:08:58.610Z,98364.00
2022-08-22T17:11:31.889Z,98376.00
2022-08-22T17:14:14.238Z,98376.00
2022-08-22T17:16:56.493Z,98371.00
2022-08-22T17:19:32.267Z,98375.00
2022-08-22T17:22:06.969Z,98384.00
2022-08-22T17:24:42.333Z,98379.00
2022-08-22T17:27:17.174Z,98373.00
2022-08-22T17:29:52.165Z,98378.00
2022-08-22T17:32:22.961Z,98375.00
2022-08-22T17:34:57.511Z,98385.00
2022-08-22T17:37:33.383Z,98389.00
2022-08-22T17:40:18.171Z,98390.00
2022-08-22T17:43:05.151Z,98392.00
2022-08-22T17:45:41.151Z,98396.00
2022-08-22T17:48:15.215Z,98399.00
2022-08-22T17:50:46.032Z,98402.00
2022-08-22T17:53:16.329Z,98403.00
2022-08-22T17:55:58.304Z,98400.00
2022-08-22T17:58:37.722Z,98407.00
2022-08-22T18:01:14.767Z,98413.00
2022-08-22T18:03:47.342Z,98409.00
2022-08-22T18:06:19.258Z,98416.00
2022-08-22T18:11:44.053Z,98430.00
2022-08-22T18:14:13.512Z,98424.00
2022-08-22T18:16:44.784Z,98413.00
2022-08-22T18:19:14.635Z,98419.00
2022-08-22T18:21:44.127Z,98426.00
2022-08-22T18:24:17.791Z,98433.00
2022-08-22T18:26:50.715Z,98431.00
2022-08-22T18:29:19.844Z,98428.00
2022-08-22T18:31:50.365Z,98427.00
2022-08-22T18:34:24.584Z,98434.00
2022-08-22T18:36:56.248Z,98437.00
2022-08-22T18:39:26.538Z,98439.00
2022-08-22T18:42:02.684Z,98448.00
2022-08-22T18:44:34.379Z,98450.00
2022-08-22T18:47:03.036Z,98456.00
2022-08-22T18:49:53.987Z,98459.00
2022-08-22T18:52:39.006Z,98456.00
2022-08-22T18:55:29.711Z,98454.00
2022-08-22T18:58:41.169Z,98463.00
2022-08-22T19:01:31.195Z,98474.00
2022-08-22T19:04:26.512Z,98470.00
2022-08-22T19:07:04.831Z,98476.00
2022-08-22T19:09:43.922Z,98477.00
2022-08-22T19:12:20.631Z,98473.00
2022-08-22T19:14:57.187Z,98482.00
2022-08-22T19:17:37.194Z,98476.00
2022-08-22T19:20:25.611Z,98477.00
2022-08-22T19:23:11.105Z,98466.00
2022-08-22T19:25:39.340Z,98485.00
2022-08-22T19:28:25.229Z,98486.00
2022-08-22T19:30:55.231Z,98488.00
2022-08-22T19:33:29.251Z,98488.00
2022-08-22T19:36:11.098Z,98492.00
2022-08-22T19:38:57.605Z,98498.00
2022-08-22T19:41:40.430Z,98493.00
2022-08-22T19:44:11.458Z,98509.00
2022-08-22T19:46:42.022Z,98509.00
2022-08-22T19:49:27.174Z,98505.00
2022-08-22T19:52:04.541Z,98497.00
2022-08-22T19:54:36.667Z,98496.00
2022-08-22T19:57:07.368Z,98502.00
2022-08-22T19:59:50.948Z,98501.00
2022-08-22T20:02:26.735Z,98506.00
2022-08-22T20:05:07.717Z,98512.00
2022-08-22T20:07:44.425Z,98513.00
2022-08-22T20:10:20.447Z,98507.00
2022-08-22T20:12:58.935Z,98516.00
2022-08-22T20:15:28.098Z,98517.00
2022-08-22T20:18:12.217Z,98515.00
2022-08-22T20:21:00.112Z,98520.00
2022-08-22T20:23:29.857Z,98518.00
2022-08-22T20:25:58.205Z,98513.00
2022-08-22T20:28:44.355Z,98516.00
2022-08-22T20:31:19.968Z,98511.00
2022-08-22T20:33:54.404Z,98517.00
2022-08-22T20:36:28.535Z,98514.00
2022-08-22T20:38:59.990Z,98510.00
2022-08-22T20:41:31.854Z,98522.00
2022-08-22T20:44:04.257Z,98520.00
2022-08-22T20:46:55.062Z,98516.00
2022-08-22T20:49:26.274Z,98518.00
2022-08-22T20:51:56.924Z,98518.00
2022-08-22T20:54:27.054Z,98519.00
2022-08-22T20:56:57.355Z,98521.00
2022-08-22T20:59:29.841Z,98516.00
2022-08-22T21:02:04.363Z,98524.00
2022-08-22T21:04:42.550Z,98521.00
2022-08-22T21:07:12.497Z,98515.00
2022-08-22T21:09:58.321Z,98521.00
2022-08-22T21:12:27.843Z,98529.00
2022-08-22T21:14:56.041Z,98520.00
2022-08-22T21:17:27.154Z,98524.00
2022-08-22T21:19:57.702Z,98526.00
2022-08-22T21:22:29.650Z,98523.00
2022-08-22T21:24:58.607Z,98528.00
2022-08-22T21:27:28.181Z,98529.00
2022-08-22T21:29:56.450Z,98525.00
2022-08-22T21:32:28.079Z,98537.00
2022-08-22T21:34:56.290Z,98526.00
2022-08-22T21:37:28.086Z,98538.00
2022-08-22T21:40:00.691Z,98521.00
2022-08-22T21:42:30.738Z,98530.00
2022-08-22T21:45:02.463Z,98535.00
2022-08-22T21:47:32.367Z,98543.00
2022-08-22T21:50:09.116Z,98547.00
2022-08-22T21:52:39.397Z,98549.00
2022-08-22T21:55:18.698Z,98544.00
2022-08-22T21:57:46.889Z,98529.00
2022-08-22T22:00:39.901Z,98544.00
2022-08-22T22:03:17.439Z,98544.00
2022-08-22T22:05:45.621Z,98540.00
2022-08-22T22:08:15.252Z,98538.00
2022-08-22T22:10:44.103Z,98543.00
2022-08-22T22:13:16.419Z,98542.00
2022-08-22T22:15:46.562Z,98539.00
2022-08-22T22:18:15.366Z,98544.00
2022-08-22T22:20:43.811Z,98548.00
2022-08-22T22:23:11.959Z,98543.00
2022-08-22T22:25:42.381Z,98549.00
2022-08-22T22:28:13.481Z,98554.00
2022-08-22T22:30:41.745Z,98551.00
2022-08-22T22:33:09.985Z,98535.00
2022-08-22T22:35:39.031Z,98557.00
2022-08-22T22:38:07.763Z,98561.00
2022-08-22T22:40:36.202Z,98569.00
2022-08-22T22:43:05.709Z,98555.00
2022-08-22T22:45:33.876Z,98563.00
2022-08-22T22:48:02.076Z,98564.00
2022-08-22T22:50:30.195Z,98558.00
2022-08-22T22:52:58.305Z,98560.00
2022-08-22T22:55:26.505Z,98559.00
2022-08-22T22:57:57.025Z,98554.00
2022-08-22T23:00:30.875Z,98565.00
2022-08-22T23:03:00.572Z,98558.00
2022-08-22T23:05:29.003Z,98560.00
2022-08-22T23:07:57.222Z,98556.00
2022-08-22T23:10:25.534Z,98553.00
2022-08-22T23:12:53.718Z,98554.00
2022-08-22T23:15:22.134Z,98556.00
2022-08-22T23:17:51.743Z,98553.00
2022-08-22T23:20:20.435Z,98561.00
2022-08-22T23:22:48.648Z,98563.00
2022-08-22T23:25:16.823Z,98552.00
2022-08-22T23:27:44.995Z,98562.00
2022-08-22T23:30:20.813Z,98555.00
2022-08-22T23:32:49.020Z,98556.00
2022-08-22T23:35:21.193Z,98560.00
2022-08-22T23:37:49.358Z,98566.00
2022-08-22T23:40:17.751Z,98557.00
2022-08-22T23:42:45.999Z,98562.00
2022-08-22T23:45:14.526Z,98568.00
2022-08-22T23:47:43.150Z,98552.00
2022-08-22T23:50:11.346Z,98558.00
2022-08-22T23:52:40.892Z,98558.00
2022-08-22T23:55:09.848Z,98559.00
2022-08-22T23:57:38.293Z,98558.00
